Time;durP1;ratioP1;P1;durP2;ratioP2;P2;SDS_P1;SDS_P2;PMS_P1;PMS_P2;Temp;Humidity;BMP_temperature;BMP_pressure;BME280_temperature;BME280_humidity;BME280_pressure;Samples;Min_cycle;Max_cycle;Signal;HPM_P1;HPM_P2
2022/08/13 00:01:25;;;;;;;1.87;0.93;;;25.70;35.60;;;;;;4956328;28;20739;-74
2022/08/13 00:03:53;;;;;;;1.60;0.67;;;25.70;35.50;;;;;;4956075;28;20572;-74
2022/08/13 00:07:02;;;;;;;1.50;0.90;;;25.70;35.50;;;;;;4938347;29;20607;-74
2022/08/13 00:09:12;;;;;;;3.00;0.97;;;25.60;35.50;;;;;;4956347;28;21047;-74
2022/08/13 00:14:29;;;;;;;1.60;0.73;;;25.60;35.50;;;;;;4955959;29;20567;-74
2022/08/13 00:16:55;;;;;;;2.80;0.73;;;25.50;35.60;;;;;;4970587;28;20572;-75
2022/08/13 00:19:21;;;;;;;1.93;0.70;;;25.50;35.90;;;;;;4955922;28;20604;-74
2022/08/13 00:21:47;;;;;;;3.07;0.77;;;25.40;35.70;;;;;;4955724;28;20673;-75
2022/08/13 00:24:14;;;;;;;1.70;0.90;;;25.40;35.90;;;;;;4970551;28;20608;-75
2022/08/13 00:26:40;;;;;;;1.63;0.80;;;25.30;35.80;;;;;;4955267;28;20172;-74
2022/08/13 00:29:08;;;;;;;3.20;0.90;;;25.30;35.90;;;;;;4955578;28;20975;-74
2022/08/13 00:31:34;;;;;;;2.37;0.80;;;25.30;36.10;;;;;;4970431;28;20579;-75
2022/08/13 00:34:00;;;;;;;1.30;0.80;;;25.20;36.10;;;;;;4954906;28;20572;-75
2022/08/13 00:36:30;;;;;;;2.73;0.90;;;25.10;36.10;;;;;;4969901;28;20219;-74
2022/08/13 00:38:56;;;;;;;1.60;0.90;;;25.10;36.40;;;;;;4955306;28;20600;-74
2022/08/13 00:41:37;;;;;;;1.87;0.90;;;25.00;36.30;;;;;;4955527;28;20763;-75
2022/08/13 00:44:05;;;;;;;1.50;0.90;;;25.00;36.50;;;;;;4955521;28;20172;-74
2022/08/13 00:46:32;;;;;;;2.20;1.43;;;24.90;36.50;;;;;;4962859;28;21157;-74
2022/08/13 00:48:58;;;;;;;2.77;1.10;;;24.90;36.70;;;;;;4973872;28;20643;-75
2022/08/13 00:51:26;;;;;;;3.50;0.80;;;24.80;36.80;;;;;;4974540;28;20613;-75
2022/08/13 00:53:58;;;;;;;2.50;0.90;;;24.70;36.90;;;;;;4974627;28;20571;-75
2022/08/13 00:56:25;;;;;;;4.33;1.10;;;24.60;37.00;;;;;;4974572;28;20582;-73
2022/08/13 00:58:52;;;;;;;3.30;1.13;;;24.50;37.00;;;;;;4974511;28;20690;-75
2022/08/13 01:01:23;;;;;;;1.70;0.93;;;24.50;37.10;;;;;;4989432;28;21459;-74
2022/08/13 01:03:50;;;;;;;4.40;1.17;;;24.40;37.60;;;;;;4975978;28;20575;-75
2022/08/13 01:06:18;;;;;;;1.73;0.97;;;24.40;37.30;;;;;;4976887;28;21106;-73
2022/08/13 01:08:44;;;;;;;2.27;1.10;;;24.40;37.40;;;;;;4977667;28;21069;-74
2022/08/13 01:11:12;;;;;;;2.67;1.10;;;24.30;37.50;;;;;;4976201;28;20571;-74
2022/08/13 01:13:41;;;;;;;2.37;0.90;;;24.30;37.60;;;;;;4991877;28;21134;-73
2022/08/13 01:16:13;;;;;;;4.53;0.90;;;24.30;37.80;;;;;;4975434;28;21173;-73
2022/08/13 01:18:43;;;;;;;1.60;0.80;;;24.20;38.00;;;;;;4974192;28;20642;-74
2022/08/13 01:21:13;;;;;;;1.80;1.20;;;24.20;38.00;;;;;;4988758;28;20627;-74
2022/08/13 01:23:43;;;;;;;2.30;1.00;;;24.20;38.10;;;;;;4988998;28;20981;-73
2022/08/13 01:26:10;;;;;;;2.20;1.10;;;24.10;38.00;;;;;;4988416;28;20572;-73
2022/08/13 01:28:38;;;;;;;1.73;1.00;;;24.20;38.10;;;;;;4973990;28;20606;-74
2022/08/13 01:31:06;;;;;;;2.30;1.10;;;24.10;38.30;;;;;;4988953;28;20576;-74
2022/08/13 01:33:35;;;;;;;2.23;1.37;;;24.10;38.30;;;;;;4988973;28;20579;-74
2022/08/13 01:36:03;;;;;;;3.70;1.20;;;24.10;38.70;;;;;;4973522;28;20666;-74
2022/08/13 01:38:30;;;;;;;2.10;1.30;;;24.00;38.50;;;;;;4988625;28;20963;-74
2022/08/13 01:40:56;;;;;;;4.70;1.30;;;24.00;38.80;;;;;;4988435;28;20575;-74
2022/08/13 01:43:24;;;;;;;1.63;0.93;;;24.00;38.70;;;;;;4972664;28;20999;-74
2022/08/13 01:45:51;;;;;;;1.97;1.50;;;24.00;38.70;;;;;;4988151;28;21081;-74
2022/08/13 01:51:08;;;;;;;2.93;1.23;;;23.90;38.80;;;;;;4973445;28;20581;-74
2022/08/13 01:53:34;;;;;;;2.30;1.20;;;23.90;39.10;;;;;;4973597;28;20673;-74
2022/08/13 01:56:01;;;;;;;4.47;1.40;;;23.90;39.10;;;;;;4973080;28;20578;-74
2022/08/13 01:58:29;;;;;;;2.07;1.23;;;23.80;39.30;;;;;;4991013;23;21087;-74
2022/08/13 02:01:01;;;;;;;2.17;1.40;;;23.80;39.60;;;;;;4955658;28;20583;-74
2022/08/13 02:03:27;;;;;;;6.03;1.40;;;23.80;39.40;;;;;;4973235;28;20583;-74
2022/08/13 02:05:56;;;;;;;2.40;1.10;;;23.80;39.30;;;;;;4972710;28;20586;-74
2022/08/13 02:08:24;;;;;;;5.83;1.80;;;23.80;39.40;;;;;;4960149;28;20614;-74
2022/08/13 02:10:52;;;;;;;3.13;2.00;;;23.70;39.30;;;;;;4974669;28;20575;-74
2022/08/13 02:13:22;;;;;;;2.50;1.57;;;23.70;39.80;;;;;;4972518;28;20943;-73
2022/08/13 02:15:49;;;;;;;2.17;1.80;;;23.70;39.80;;;;;;4973411;28;20583;-74
2022/08/13 02:18:18;;;;;;;2.13;1.13;;;23.70;40.00;;;;;;4972870;28;21032;-73
2022/08/13 02:20:48;;;;;;;2.73;1.20;;;23.60;40.10;;;;;;4972870;28;20606;-74
2022/08/13 02:23:21;;;;;;;3.00;1.33;;;23.60;40.00;;;;;;4972863;28;20587;-73
2022/08/13 02:25:50;;;;;;;2.67;1.30;;;23.60;40.20;;;;;;4955023;28;20611;-73
2022/08/13 02:28:19;;;;;;;1.93;1.40;;;23.60;39.90;;;;;;4971671;28;21020;-73
2022/08/13 02:30:46;;;;;;;5.00;1.67;;;23.60;40.00;;;;;;4987778;28;20610;-73
2022/08/13 02:33:12;;;;;;;3.50;1.57;;;23.60;40.20;;;;;;4972868;28;21147;-73
2022/08/13 02:35:39;;;;;;;2.13;1.20;;;23.60;40.20;;;;;;4972455;28;20610;-73
2022/08/13 02:38:06;;;;;;;1.80;1.20;;;23.50;40.20;;;;;;4955368;28;20622;-74
2022/08/13 02:43:17;;;;;;;4.60;1.47;;;23.50;40.40;;;;;;4972760;28;20569;-74
2022/08/13 02:45:46;;;;;;;3.30;1.37;;;23.50;40.50;;;;;;4955006;28;20594;-74
2022/08/13 02:48:12;;;;;;;2.93;1.50;;;23.40;40.90;;;;;;4971336;28;20618;-74
2022/08/13 02:50:42;;;;;;;1.87;1.33;;;23.50;40.60;;;;;;4972668;28;20567;-74
2022/08/13 02:53:09;;;;;;;6.03;1.40;;;23.40;40.60;;;;;;4972920;28;20227;-74
2022/08/13 02:55:36;;;;;;;1.90;1.17;;;23.40;40.80;;;;;;4972340;28;20598;-74
2022/08/13 02:58:03;;;;;;;2.17;1.37;;;23.40;40.90;;;;;;4971330;28;20606;-74
2022/08/13 03:00:30;;;;;;;3.63;1.40;;;23.40;41.00;;;;;;4972947;28;20579;-74
2022/08/13 03:02:57;;;;;;;5.70;2.10;;;23.40;40.90;;;;;;4973879;28;20571;-74
2022/08/13 03:05:23;;;;;;;2.83;1.40;;;23.40;40.90;;;;;;4954928;28;20567;-74
2022/08/13 03:07:49;;;;;;;4.30;1.47;;;23.40;41.20;;;;;;4971210;28;20991;-74
2022/08/13 03:10:17;;;;;;;3.30;1.30;;;23.40;41.10;;;;;;4955224;28;20172;-74
2022/08/13 03:12:48;;;;;;;3.57;1.40;;;23.30;41.10;;;;;;4987409;28;20986;-74
2022/08/13 03:15:16;;;;;;;2.13;1.10;;;23.30;42.00;;;;;;4954800;28;20594;-74
2022/08/13 03:17:43;;;;;;;1.90;1.13;;;23.30;41.30;;;;;;4972356;28;20662;-74
2022/08/13 03:20:15;;;;;;;2.87;1.30;;;23.30;41.70;;;;;;4971281;28;20587;-74
2022/08/13 03:22:47;;;;;;;2.50;1.53;;;23.30;41.50;;;;;;4987228;28;20908;-74
2022/08/13 03:25:15;;;;;;;4.40;1.53;;;23.30;41.70;;;;;;4973489;28;20970;-74
2022/08/13 03:27:41;;;;;;;2.27;1.27;;;23.30;41.50;;;;;;4975969;28;20562;-74
2022/08/13 03:30:07;;;;;;;2.13;1.30;;;23.20;42.10;;;;;;4974805;28;20691;-74
2022/08/13 03:32:41;;;;;;;3.93;1.60;;;23.20;41.80;;;;;;4974585;28;20621;-74
2022/08/13 03:35:12;;;;;;;2.37;1.20;;;23.20;41.90;;;;;;4975484;28;20573;-74
2022/08/13 03:37:41;;;;;;;1.83;1.10;;;23.20;41.90;;;;;;4975514;28;20571;-74
2022/08/13 03:40:08;;;;;;;4.13;1.20;;;23.20;42.10;;;;;;4961122;28;20987;-74
2022/08/13 03:42:35;;;;;;;2.87;1.70;;;23.20;41.90;;;;;;4967484;28;20592;-74
2022/08/13 03:45:03;;;;;;;4.07;1.77;;;23.20;41.90;;;;;;4974201;28;20614;-73
2022/08/13 03:47:30;;;;;;;2.40;1.30;;;23.10;41.90;;;;;;4975384;28;20575;-73
2022/08/13 03:49:57;;;;;;;2.67;1.30;;;23.10;42.10;;;;;;4975680;28;21110;-73
2022/08/13 03:52:24;;;;;;;1.93;1.27;;;23.10;42.10;;;;;;4958144;28;20626;-74
2022/08/13 03:54:49;;;;;;;2.40;1.40;;;23.10;42.10;;;;;;4975208;28;21009;-74
2022/08/13 03:57:17;;;;;;;2.57;1.60;;;23.10;42.20;;;;;;4975513;28;20590;-73
2022/08/13 03:59:43;;;;;;;3.70;1.40;;;23.00;42.30;;;;;;4975363;28;20200;-74
2022/08/13 04:02:11;;;;;;;2.20;1.17;;;23.00;42.40;;;;;;4975458;28;20617;-74
2022/08/13 04:04:37;;;;;;;2.20;1.33;;;23.00;42.30;;;;;;4975133;28;20569;-74
2022/08/13 04:07:04;;;;;;;3.13;1.40;;;23.00;42.30;;;;;;4975471;28;20919;-74
2022/08/13 04:09:30;;;;;;;1.80;1.30;;;23.00;42.30;;;;;;4975312;28;20199;-73
2022/08/13 04:11:56;;;;;;;3.80;1.10;;;22.90;42.40;;;;;;4978025;28;20615;-74
2022/08/13 04:14:21;;;;;;;2.20;1.30;;;22.90;42.40;;;;;;4975603;28;20160;-74
2022/08/13 04:16:47;;;;;;;2.60;1.30;;;22.90;42.40;;;;;;4978294;28;20172;-74
2022/08/13 04:19:14;;;;;;;2.57;1.33;;;22.80;42.60;;;;;;4974929;28;20978;-74
2022/08/13 04:21:40;;;;;;;2.00;1.60;;;22.80;42.60;;;;;;4990041;28;20180;-74
2022/08/13 04:24:06;;;;;;;5.53;1.30;;;22.80;42.60;;;;;;4975118;28;20563;-74
2022/08/13 04:26:33;;;;;;;4.23;1.90;;;22.80;42.60;;;;;;4974595;28;20176;-73
2022/08/13 04:29:02;;;;;;;3.40;1.70;;;22.80;42.80;;;;;;4974812;28;20598;-74
2022/08/13 04:31:28;;;;;;;2.60;1.30;;;22.70;42.80;;;;;;4973666;28;20646;-73
2022/08/13 04:33:54;;;;;;;1.80;1.20;;;22.70;42.90;;;;;;4989808;28;21154;-74
2022/08/13 04:36:20;;;;;;;2.03;1.60;;;22.70;43.00;;;;;;4974104;28;20226;-74
2022/08/13 04:38:46;;;;;;;4.60;1.40;;;22.70;43.20;;;;;;4973455;28;20200;-74
2022/08/13 04:41:12;;;;;;;1.80;1.30;;;22.60;43.20;;;;;;4974645;28;20179;-74
2022/08/13 04:43:38;;;;;;;3.53;2.00;;;22.60;43.80;;;;;;4973508;28;20601;-74
2022/08/13 04:46:04;;;;;;;4.37;1.20;;;22.60;43.30;;;;;;4974413;28;20539;-74
2022/08/13 04:48:33;;;;;;;2.17;1.50;;;22.60;43.70;;;;;;4974472;28;20665;-74
2022/08/13 04:51:00;;;;;;;4.37;2.07;;;22.60;43.70;;;;;;4974525;28;20575;-74
2022/08/13 04:53:28;;;;;;;2.00;1.70;;;22.60;44.00;;;;;;4974416;28;21135;-74
2022/08/13 04:55:56;;;;;;;2.23;1.33;;;22.60;44.10;;;;;;4974099;28;20578;-74
2022/08/13 04:58:23;;;;;;;2.27;1.20;;;22.60;44.00;;;;;;4974189;28;20981;-74
2022/08/13 05:00:50;;;;;;;3.13;1.40;;;22.60;44.70;;;;;;4989224;28;20575;-74
2022/08/13 05:03:19;;;;;;;2.20;1.33;;;22.60;44.60;;;;;;4974088;28;20567;-74
2022/08/13 05:05:47;;;;;;;2.83;1.37;;;22.60;44.40;;;;;;4974068;28;20579;-74
2022/08/13 05:08:15;;;;;;;2.77;1.43;;;22.60;44.30;;;;;;4974150;28;20730;-74
2022/08/13 05:10:42;;;;;;;2.10;1.37;;;22.70;44.30;;;;;;4974064;28;20562;-74
2022/08/13 05:13:29;;;;;;;2.30;1.40;;;22.70;44.20;;;;;;4972982;28;20630;-74
2022/08/13 05:15:58;;;;;;;3.47;1.30;;;22.70;44.30;;;;;;4952616;28;20595;-73
2022/08/13 05:18:26;;;;;;;4.63;1.37;;;22.70;44.60;;;;;;4953390;29;20612;-73
2022/08/13 05:20:55;;;;;;;3.10;1.33;;;22.70;44.30;;;;;;4953346;29;20612;-74
2022/08/13 05:23:22;;;;;;;2.07;1.40;;;22.70;44.30;;;;;;4969551;28;20588;-73
2022/08/13 05:25:49;;;;;;;4.10;1.60;;;22.70;44.30;;;;;;4954065;28;20576;-74
2022/08/13 05:28:17;;;;;;;2.27;1.23;;;22.80;44.40;;;;;;4954532;28;20608;-74
2022/08/13 05:30:46;;;;;;;2.47;1.30;;;22.80;44.50;;;;;;4936486;29;21191;-74
2022/08/13 05:33:24;;;;;;;1.80;1.40;;;22.80;44.50;;;;;;4954510;28;20592;-74
2022/08/13 05:35:53;;;;;;;3.13;1.63;;;22.80;44.60;;;;;;4952846;29;20572;-73
2022/08/13 05:38:22;;;;;;;4.10;1.83;;;22.90;44.60;;;;;;4969070;28;21265;-73
2022/08/13 05:40:56;;;;;;;1.90;1.30;;;22.90;44.60;;;;;;4954291;28;20560;-73
2022/08/13 05:43:24;;;;;;;2.83;1.30;;;22.90;44.60;;;;;;4954442;28;20572;-74
2022/08/13 05:45:57;;;;;;;2.70;1.60;;;23.00;44.70;;;;;;4953790;28;20572;-74
2022/08/13 05:48:25;;;;;;;3.20;1.77;;;23.00;44.80;;;;;;4953420;28;20690;-74
2022/08/13 05:50:51;;;;;;;1.80;1.13;;;23.10;44.90;;;;;;4953997;28;20572;-74
2022/08/13 05:53:17;;;;;;;3.03;1.60;;;23.20;44.90;;;;;;4968748;28;20580;-74
2022/08/13 05:55:43;;;;;;;2.40;1.50;;;23.20;44.80;;;;;;4936519;29;20580;-74
2022/08/13 05:58:13;;;;;;;3.57;1.83;;;23.30;44.90;;;;;;4968731;28;20675;-74
2022/08/13 06:03:29;;;;;;;2.80;1.17;;;23.50;44.90;;;;;;4953973;29;20606;-74
2022/08/13 06:05:57;;;;;;;4.33;2.07;;;23.60;45.10;;;;;;4968561;28;20757;-73
2022/08/13 06:08:29;;;;;;;2.83;1.53;;;23.70;45.10;;;;;;4953863;28;20638;-72
2022/08/13 06:11:00;;;;;;;4.57;1.00;;;23.90;45.60;;;;;;4952756;29;20704;-73
2022/08/13 06:13:28;;;;;;;5.80;1.77;;;23.90;44.90;;;;;;4952782;29;20577;-72
2022/08/13 06:15:58;;;;;;;4.80;1.23;;;24.10;44.80;;;;;;4947929;28;20643;-73
2022/08/13 06:18:33;;;;;;;2.83;1.40;;;24.20;44.80;;;;;;4951487;29;20968;-73
2022/08/13 06:21:01;;;;;;;2.23;1.00;;;24.20;44.60;;;;;;4953895;28;20936;-73
2022/08/13 06:23:30;;;;;;;4.90;1.00;;;24.50;44.70;;;;;;4968366;28;20590;-73
2022/08/13 06:25:57;;;;;;;2.63;1.10;;;24.90;44.90;;;;;;4968164;28;21218;-73
2022/08/13 06:28:28;;;;;;;4.63;0.93;;;25.60;45.20;;;;;;4935123;29;21203;-73
2022/08/13 06:30:55;;;;;;;2.00;1.30;;;26.40;45.40;;;;;;4952219;29;20618;-73
2022/08/13 06:33:22;;;;;;;2.00;0.90;;;27.30;45.20;;;;;;4936467;29;20973;-73
2022/08/13 06:35:52;;;;;;;1.80;1.20;;;28.30;45.00;;;;;;4935003;29;20573;-73
2022/08/13 06:38:22;;;;;;;2.57;0.93;;;29.20;44.00;;;;;;4935891;29;20616;-74
2022/08/13 06:40:48;;;;;;;3.30;0.90;;;30.20;43.30;;;;;;4953230;28;20584;-73
2022/08/13 06:43:18;;;;;;;1.87;0.87;;;31.20;43.10;;;;;;4936303;29;20585;-74
2022/08/13 06:45:45;;;;;;;1.60;0.80;;;32.40;42.50;;;;;;4953260;29;20608;-73
2022/08/13 06:48:11;;;;;;;3.83;1.20;;;33.20;40.50;;;;;;4933238;29;20989;-73
2022/08/13 06:50:37;;;;;;;1.90;0.80;;;33.90;39.80;;;;;;4951137;29;20580;-73
2022/08/13 06:53:05;;;;;;;1.80;1.00;;;34.70;38.70;;;;;;4953666;28;20619;-73
2022/08/13 06:55:34;;;;;;;2.43;1.10;;;35.30;37.80;;;;;;4953047;28;20580;-73
2022/08/13 06:58:00;;;;;;;1.97;1.00;;;35.90;37.20;;;;;;4953002;28;20719;-73
2022/08/13 07:00:26;;;;;;;5.20;0.90;;;36.30;35.90;;;;;;4956483;28;20688;-73
2022/08/13 07:02:52;;;;;;;1.60;0.90;;;36.60;35.50;;;;;;4957261;28;20658;-73
2022/08/13 07:05:31;;;;;;;1.83;0.97;;;37.30;35.20;;;;;;4956652;28;20644;-73
2022/08/13 07:07:59;;;;;;;1.60;0.90;;;37.50;30.30;;;;;;4957115;28;20622;-76
2022/08/13 07:10:25;;;;;;;1.80;1.00;;;37.70;33.00;;;;;;4958650;28;20936;-76
2022/08/13 07:12:53;;;;;;;1.80;0.80;;;37.80;32.70;;;;;;4960312;28;20724;-76
2022/08/13 07:15:18;;;;;;;1.80;1.00;;;38.00;30.30;;;;;;4965188;28;20564;-75
2022/08/13 07:17:45;;;;;;;1.60;0.80;;;37.90;31.30;;;;;;4969735;28;20582;-75
2022/08/13 07:20:11;;;;;;;4.47;0.83;;;37.70;30.90;;;;;;4964458;28;20179;-75
2022/08/13 07:22:38;;;;;;;1.70;0.90;;;38.00;31.00;;;;;;4965217;29;20576;-75
2022/08/13 07:25:05;;;;;;;1.60;0.77;;;38.00;30.30;;;;;;4966791;28;20568;-75
2022/08/13 07:27:31;;;;;;;1.50;0.80;;;38.10;30.50;;;;;;4963920;28;20568;-76
2022/08/13 07:29:59;;;;;;;1.63;0.80;;;38.40;30.70;;;;;;4945006;29;21197;-75
2022/08/13 07:32:27;;;;;;;2.00;0.93;;;38.60;29.40;;;;;;4965193;28;20687;-75
2022/08/13 07:34:58;;;;;;;1.70;0.80;;;38.50;29.20;;;;;;4966806;29;20584;-75
2022/08/13 07:37:23;;;;;;;2.27;0.80;;;38.50;29.60;;;;;;4985114;28;20584;-75
2022/08/13 07:39:49;;;;;;;4.70;0.80;;;38.90;30.30;;;;;;4971541;29;20660;-76
2022/08/13 07:42:16;;;;;;;1.77;1.00;;;39.10;29.60;;;;;;4965547;29;20199;-76
2022/08/13 07:44:42;;;;;;;2.03;1.00;;;39.50;29.80;;;;;;4963389;29;20199;-76
2022/08/13 07:47:13;;;;;;;1.40;0.70;;;40.20;29.60;;;;;;4948011;29;20671;-76
2022/08/13 07:49:40;;;;;;;4.60;0.90;;;40.60;29.00;;;;;;4944053;29;20972;-76
2022/08/13 07:52:07;;;;;;;2.10;0.77;;;41.00;29.10;;;;;;4941964;29;21593;-75
2022/08/13 07:54:34;;;;;;;1.70;0.90;;;41.40;28.70;;;;;;4942756;29;20655;-75
2022/08/13 07:57:00;;;;;;;3.00;0.90;;;41.60;28.40;;;;;;4943704;29;20635;-75
2022/08/13 07:59:28;;;;;;;2.13;0.83;;;41.70;27.80;;;;;;4938025;29;21053;-76
2022/08/13 08:01:56;;;;;;;1.70;0.80;;;41.90;27.70;;;;;;4937201;29;20585;-76
2022/08/13 08:04:24;;;;;;;1.77;1.00;;;42.10;27.50;;;;;;4937153;29;20575;-76
2022/08/13 08:06:51;;;;;;;1.30;0.70;;;42.50;28.30;;;;;;4935828;29;20581;-76
2022/08/13 08:09:18;;;;;;;4.37;0.80;;;42.90;27.50;;;;;;4935641;29;20661;-76
2022/08/13 08:14:30;;;;;;;2.00;0.87;;;43.70;27.20;;;;;;4938638;29;20564;-76
2022/08/13 08:17:00;;;;;;;1.90;0.70;;;43.90;26.50;;;;;;4938844;29;21207;-76
2022/08/13 08:19:27;;;;;;;1.50;0.80;;;44.00;26.00;;;;;;4937956;29;20629;-76
2022/08/13 08:21:58;;;;;;;1.30;0.60;;;43.80;25.30;;;;;;4936541;29;21005;-76
2022/08/13 08:24:26;;;;;;;1.93;0.70;;;43.80;25.60;;;;;;4936679;29;20568;-76
2022/08/13 08:26:53;;;;;;;2.83;1.40;;;43.80;25.70;;;;;;4935432;29;21010;-76
2022/08/13 08:29:21;;;;;;;1.50;0.80;;;43.90;25.70;;;;;;4936679;29;21005;-76
2022/08/13 08:31:48;;;;;;;1.57;0.80;;;43.90;25.20;;;;;;4936563;29;20978;-76
2022/08/13 08:34:17;;;;;;;1.60;0.90;;;43.80;25.30;;;;;;4927997;29;21147;-76
2022/08/13 08:36:43;;;;;;;1.40;0.70;;;43.60;25.00;;;;;;4955689;29;20580;-76
2022/08/13 08:44:43;;;;;;;2.10;0.90;;;43.60;24.40;;;;;;4954085;29;20647;-76
2022/08/13 08:47:10;;;;;;;1.43;0.73;;;43.30;24.40;;;;;;4955363;28;20564;-76
2022/08/13 08:49:37;;;;;;;1.20;0.70;;;42.90;24.40;;;;;;4955161;28;21004;-76
2022/08/13 08:52:03;;;;;;;1.40;0.70;;;42.80;24.80;;;;;;4954202;29;20673;-76
2022/08/13 08:54:30;;;;;;;2.23;0.80;;;42.70;24.80;;;;;;4956140;28;20952;-76
2022/08/13 08:56:57;;;;;;;1.40;0.70;;;42.60;24.40;;;;;;4955151;29;20579;-76
2022/08/13 08:59:28;;;;;;;2.07;0.70;;;42.40;24.90;;;;;;4954970;29;20689;-75
2022/08/13 09:01:55;;;;;;;1.50;0.73;;;42.70;24.90;;;;;;4953348;29;20603;-76
2022/08/13 09:04:25;;;;;;;2.20;0.57;;;42.50;24.80;;;;;;4955182;28;21143;-76
2022/08/13 09:06:53;;;;;;;1.23;0.63;;;42.50;25.20;;;;;;4954987;28;20572;-76
2022/08/13 09:09:20;;;;;;;3.20;0.80;;;42.60;25.30;;;;;;4955051;28;20971;-75
2022/08/13 09:11:55;;;;;;;1.93;0.70;;;42.90;25.30;;;;;;4953797;29;20631;-75
2022/08/13 09:14:26;;;;;;;1.30;0.60;;;42.70;24.10;;;;;;4952699;29;21163;-76
2022/08/13 09:16:54;;;;;;;2.90;0.80;;;42.40;24.10;;;;;;4954584;28;20572;-75
2022/08/13 09:19:20;;;;;;;1.67;0.90;;;41.80;23.90;;;;;;4954869;29;20599;-75
2022/08/13 09:21:47;;;;;;;1.97;0.57;;;41.70;24.30;;;;;;4953579;28;20607;-75
2022/08/13 09:24:15;;;;;;;1.53;0.70;;;41.70;24.40;;;;;;4953567;29;20259;-76
2022/08/13 09:26:47;;;;;;;1.30;0.57;;;41.80;25.10;;;;;;4954693;29;21103;-75
2022/08/13 09:29:18;;;;;;;1.20;0.60;;;42.20;24.90;;;;;;4955578;29;20933;-76
2022/08/13 09:31:48;;;;;;;3.10;0.60;;;42.60;24.90;;;;;;4954938;29;20670;-76
2022/08/13 09:34:14;;;;;;;1.20;0.60;;;43.10;24.80;;;;;;4954673;28;20620;-76
2022/08/13 09:36:40;;;;;;;1.97;0.80;;;43.10;24.20;;;;;;4954475;28;20627;-75
2022/08/13 09:39:07;;;;;;;2.03;0.80;;;43.10;24.30;;;;;;4954700;29;20687;-75
2022/08/13 09:41:48;;;;;;;1.60;0.70;;;43.40;25.10;;;;;;4954340;29;20603;-76
2022/08/13 09:44:16;;;;;;;1.60;0.80;;;43.80;25.00;;;;;;4941715;28;20596;-75
2022/08/13 09:46:42;;;;;;;1.50;0.83;;;44.00;24.40;;;;;;4934878;29;20581;-76
2022/08/13 09:49:11;;;;;;;1.97;0.60;;;44.20;24.70;;;;;;4933710;29;20615;-76
2022/08/13 09:51:36;;;;;;;2.63;0.73;;;44.60;24.30;;;;;;4935103;29;20616;-76
2022/08/13 09:54:09;;;;;;;1.23;0.70;;;44.70;23.90;;;;;;4934074;29;20635;-75
2022/08/13 09:56:38;;;;;;;1.60;0.70;;;44.50;23.50;;;;;;4933777;29;20543;-76
2022/08/13 09:59:08;;;;;;;1.40;0.70;;;44.50;24.00;;;;;;4934960;29;20958;-76
2022/08/13 10:01:35;;;;;;;1.93;0.70;;;44.90;24.30;;;;;;4935048;29;20589;-76
2022/08/13 10:04:02;;;;;;;1.60;0.60;;;45.20;23.60;;;;;;4934811;29;20565;-76
2022/08/13 10:06:28;;;;;;;2.00;0.70;;;45.40;23.50;;;;;;4934832;29;20592;-76
2022/08/13 10:08:55;;;;;;;1.97;0.60;;;45.00;22.70;;;;;;4934944;29;20948;-76
2022/08/13 10:11:24;;;;;;;2.87;0.60;;;44.60;22.70;;;;;;4934692;29;21220;-76
2022/08/13 10:13:50;;;;;;;4.03;0.63;;;44.40;23.00;;;;;;4949585;29;20994;-75
2022/08/13 10:16:16;;;;;;;1.50;0.60;;;43.90;22.80;;;;;;4934676;29;20593;-74
2022/08/13 10:18:42;;;;;;;1.30;0.70;;;43.90;23.00;;;;;;4934562;29;20705;-74
2022/08/13 10:21:08;;;;;;;2.27;0.70;;;43.50;22.80;;;;;;4934579;29;20216;-75
2022/08/13 10:23:35;;;;;;;2.70;0.80;;;43.20;22.70;;;;;;4933126;29;20588;-74
2022/08/13 10:26:01;;;;;;;2.20;0.70;;;43.00;22.90;;;;;;4934393;29;20615;-75
2022/08/13 10:28:31;;;;;;;3.00;0.70;;;43.00;23.20;;;;;;4934608;29;20971;-75
2022/08/13 10:30:58;;;;;;;1.70;0.70;;;43.10;23.60;;;;;;4934707;29;20924;-75
2022/08/13 10:33:24;;;;;;;1.60;1.00;;;43.20;23.30;;;;;;4934058;29;20604;-74
2022/08/13 10:35:55;;;;;;;2.57;0.80;;;43.10;23.20;;;;;;4934436;29;20569;-74
2022/08/13 10:38:27;;;;;;;1.60;0.70;;;42.90;22.90;;;;;;4933413;29;20192;-74
2022/08/13 10:40:54;;;;;;;2.17;0.83;;;42.80;23.20;;;;;;4934583;29;20612;-74
2022/08/13 10:43:21;;;;;;;1.60;0.80;;;42.50;23.10;;;;;;4935447;29;20573;-75
2022/08/13 10:45:49;;;;;;;7.80;0.80;;;42.50;23.50;;;;;;4934260;29;20708;-74
2022/08/13 10:48:14;;;;;;;1.43;0.80;;;42.80;23.60;;;;;;4933154;29;20609;-75
2022/08/13 10:50:41;;;;;;;3.43;0.70;;;42.90;23.30;;;;;;4934589;29;21116;-75
2022/08/13 10:53:07;;;;;;;3.00;0.70;;;42.60;23.10;;;;;;4934301;29;20212;-75
2022/08/13 10:55:35;;;;;;;2.07;0.80;;;42.50;23.10;;;;;;4934402;29;20561;-75
2022/08/13 10:58:03;;;;;;;3.00;0.70;;;42.40;23.20;;;;;;4932917;29;20209;-75
2022/08/13 11:00:30;;;;;;;2.20;0.80;;;42.10;23.10;;;;;;4949067;29;20980;-75
2022/08/13 11:02:55;;;;;;;1.83;0.70;;;41.90;23.20;;;;;;4934308;29;20569;-75
2022/08/13 11:05:25;;;;;;;1.23;0.67;;;41.80;23.30;;;;;;4934192;29;20588;-75
2022/08/13 11:07:53;;;;;;;3.93;0.80;;;41.70;23.80;;;;;;4934187;29;20193;-76
2022/08/13 11:10:21;;;;;;;1.97;0.70;;;41.50;23.40;;;;;;4932948;29;20584;-76
2022/08/13 11:12:50;;;;;;;2.67;0.70;;;41.30;23.50;;;;;;4934340;29;20573;-76
2022/08/13 11:15:21;;;;;;;2.07;0.60;;;41.40;23.80;;;;;;4934266;29;20667;-76
2022/08/13 11:17:56;;;;;;;1.70;0.90;;;41.60;23.80;;;;;;4934197;29;20581;-74
2022/08/13 11:20:24;;;;;;;1.40;0.70;;;41.80;23.80;;;;;;4935163;29;20576;-75
2022/08/13 11:22:53;;;;;;;1.30;0.60;;;41.90;23.60;;;;;;4934141;29;20667;-75
2022/08/13 11:25:20;;;;;;;1.50;0.70;;;41.90;23.50;;;;;;4932866;29;20929;-75
2022/08/13 11:27:46;;;;;;;1.80;0.70;;;41.80;23.50;;;;;;4934077;29;20573;-74
2022/08/13 11:30:14;;;;;;;1.30;0.70;;;41.70;23.80;;;;;;4934116;29;20565;-74
2022/08/13 11:32:41;;;;;;;1.40;0.70;;;41.90;24.10;;;;;;4934102;29;20577;-74
2022/08/13 11:35:07;;;;;;;1.40;0.70;;;42.20;24.30;;;;;;4933888;29;20568;-74
2022/08/13 11:37:34;;;;;;;1.77;0.70;;;42.50;23.80;;;;;;4934916;29;20596;-73
2022/08/13 11:40:03;;;;;;;1.60;0.70;;;42.50;23.80;;;;;;4940076;29;20599;-73
2022/08/13 11:42:29;;;;;;;1.53;0.87;;;42.70;23.80;;;;;;4952793;28;20631;-74
2022/08/13 11:44:55;;;;;;;1.43;0.80;;;42.90;23.60;;;;;;4939281;29;20589;-73
2022/08/13 11:47:21;;;;;;;1.30;0.70;;;42.90;23.10;;;;;;4935597;29;20575;-73
2022/08/13 11:49:47;;;;;;;3.10;0.70;;;42.80;23.30;;;;;;4939191;29;20204;-73
2022/08/13 11:52:12;;;;;;;1.40;0.60;;;42.40;22.50;;;;;;4956257;29;20191;-73
2022/08/13 11:54:38;;;;;;;1.23;0.60;;;41.80;22.40;;;;;;4956056;29;20176;-74
2022/08/13 11:57:06;;;;;;;3.47;0.60;;;41.00;22.30;;;;;;4952534;28;20195;-74
2022/08/13 11:59:32;;;;;;;1.97;0.67;;;40.40;22.50;;;;;;4937866;29;20242;-74
2022/08/13 12:01:58;;;;;;;1.40;0.63;;;40.10;23.40;;;;;;4956069;29;20623;-74
2022/08/13 12:04:24;;;;;;;1.47;0.60;;;40.10;23.50;;;;;;4956275;28;20172;-75
2022/08/13 12:06:50;;;;;;;1.60;0.60;;;40.10;23.70;;;;;;4949696;28;20576;-75
2022/08/13 12:09:18;;;;;;;10.40;0.80;;;40.10;23.70;;;;;;4935728;29;20593;-77
2022/08/13 12:11:43;;;;;;;2.53;0.70;;;40.10;23.60;;;;;;4936844;29;20181;-74
2022/08/13 12:14:09;;;;;;;4.00;0.90;;;40.10;23.70;;;;;;4935785;29;20573;-74
2022/08/13 12:16:35;;;;;;;2.50;0.90;;;40.10;23.70;;;;;;4935219;29;20179;-73
2022/08/13 12:19:01;;;;;;;3.10;0.80;;;39.80;23.80;;;;;;4935380;29;20295;-74
2022/08/13 12:21:27;;;;;;;1.87;0.70;;;39.70;23.60;;;;;;4935387;29;20204;-74
2022/08/13 12:23:53;;;;;;;2.70;0.70;;;39.40;23.40;;;;;;4935571;29;20268;-74
2022/08/13 12:26:19;;;;;;;1.43;0.70;;;39.20;23.40;;;;;;4936480;29;20960;-73
2022/08/13 12:28:44;;;;;;;1.30;0.60;;;39.00;23.50;;;;;;4936622;29;20597;-74
2022/08/13 12:31:12;;;;;;;1.30;0.67;;;38.80;23.50;;;;;;4936668;29;20534;-74
2022/08/13 12:33:38;;;;;;;1.40;0.60;;;38.60;23.40;;;;;;4936879;29;20169;-75
2022/08/13 12:36:05;;;;;;;1.40;0.70;;;38.40;23.60;;;;;;4936218;29;20579;-75
2022/08/13 12:38:31;;;;;;;1.17;0.50;;;38.40;24.00;;;;;;4936579;29;20768;-74
2022/08/13 12:41:00;;;;;;;1.50;0.70;;;38.50;24.00;;;;;;4936505;29;20600;-75
2022/08/13 12:43:26;;;;;;;1.60;0.70;;;38.50;24.00;;;;;;4936381;29;20691;-75
2022/08/13 12:45:52;;;;;;;1.30;0.70;;;38.50;24.20;;;;;;4936086;29;20569;-73
2022/08/13 12:48:18;;;;;;;4.13;1.00;;;38.50;24.20;;;;;;4936160;29;20593;-73
2022/08/13 12:50:46;;;;;;;1.90;0.80;;;38.50;24.20;;;;;;4936154;29;20184;-74
2022/08/13 12:53:13;;;;;;;1.80;0.80;;;38.40;24.30;;;;;;4934825;29;20587;-74
2022/08/13 12:55:40;;;;;;;5.07;0.70;;;38.10;23.90;;;;;;4936011;29;21112;-74
2022/08/13 12:58:26;;;;;;;4.80;0.67;;;37.80;23.90;;;;;;4931914;29;20682;-73
2022/08/13 13:00:54;;;;;;;2.47;0.70;;;37.50;24.70;;;;;;4953901;29;20592;-73
2022/08/13 13:03:22;;;;;;;2.07;0.90;;;37.30;24.30;;;;;;4951938;29;20702;-73
2022/08/13 13:05:50;;;;;;;4.67;0.87;;;36.80;24.60;;;;;;4951777;28;20599;-74
2022/08/13 13:08:19;;;;;;;2.40;0.67;;;36.60;24.60;;;;;;4955066;28;20603;-74
2022/08/13 13:10:46;;;;;;;1.40;0.70;;;36.50;24.70;;;;;;4969845;28;20594;-75